Time;durP1;ratioP1;P1;durP2;ratioP2;P2;SDS_P1;SDS_P2;PMS_P1;PMS_P2;Temp;Humidity;BMP_temperature;BMP_pressure;BME280_temperature;BME280_humidity;BME280_pressure;Samples;Min_cycle;Max_cycle;Signal;HPM_P1;HPM_P2
2023/09/07 00:01:36;;;;;;;8.35;3.90;;;20.80;93.40;;;;;;6272103;22;20014;-69
2023/09/07 00:04:22;;;;;;;7.85;4.22;;;20.80;93.50;;;;;;6272739;22;20449;-69
2023/09/07 00:07:09;;;;;;;5.70;3.92;;;20.80;93.60;;;;;;6271943;22;20012;-69
2023/09/07 00:09:55;;;;;;;6.30;3.78;;;20.80;93.60;;;;;;6271872;22;20445;-69
2023/09/07 00:12:40;;;;;;;6.22;3.92;;;20.80;93.70;;;;;;6271569;22;20086;-67
2023/09/07 00:15:26;;;;;;;6.82;4.32;;;20.70;93.80;;;;;;6272264;22;20706;-66
2023/09/07 00:18:12;;;;;;;5.97;4.10;;;20.70;93.80;;;;;;6269638;22;20051;-67
2023/09/07 00:20:59;;;;;;;7.20;5.13;;;20.70;94.00;;;;;;6272148;22;20011;-67
2023/09/07 00:23:45;;;;;;;5.97;4.20;;;20.70;94.00;;;;;;6272585;22;20019;-67
2023/09/07 00:26:32;;;;;;;5.97;4.10;;;20.60;94.10;;;;;;6269102;22;20039;-67
2023/09/07 00:29:18;;;;;;;10.07;4.65;;;20.60;94.10;;;;;;6271677;22;20015;-67
2023/09/07 00:32:05;;;;;;;9.15;5.28;;;20.60;94.10;;;;;;6271623;22;20349;-67
2023/09/07 00:34:51;;;;;;;9.05;4.97;;;20.50;94.10;;;;;;6271536;22;20003;-68
2023/09/07 00:37:38;;;;;;;6.97;4.70;;;20.50;94.30;;;;;;6249919;22;20039;-67
2023/09/07 00:40:25;;;;;;;7.53;4.38;;;20.50;94.20;;;;;;6272729;22;20433;-68
2023/09/07 00:43:11;;;;;;;7.53;4.55;;;20.50;94.30;;;;;;6271829;22;20020;-68
2023/09/07 00:45:57;;;;;;;6.60;4.50;;;20.40;94.40;;;;;;6272865;22;20007;-68
2023/09/07 00:48:43;;;;;;;7.20;4.60;;;20.40;94.70;;;;;;6271540;22;20012;-68
2023/09/07 00:51:30;;;;;;;7.47;4.50;;;20.50;94.90;;;;;;6271688;22;20003;-68
2023/09/07 00:54:16;;;;;;;6.13;4.53;;;20.50;95.00;;;;;;6270376;22;20113;-68
2023/09/07 00:57:02;;;;;;;6.28;4.47;;;20.40;95.00;;;;;;6270042;22;20008;-68
2023/09/07 00:59:48;;;;;;;6.07;4.43;;;20.40;95.10;;;;;;6271281;22;20019;-68
2023/09/07 01:02:34;;;;;;;5.70;4.13;;;20.40;95.10;;;;;;6271722;22;20035;-68
2023/09/07 01:05:27;;;;;;;6.75;4.22;;;20.30;95.20;;;;;;6271884;22;20086;-68
2023/09/07 01:08:23;;;;;;;6.80;4.72;;;20.30;95.30;;;;;;6270768;22;20605;-69
2023/09/07 01:11:17;;;;;;;7.10;4.07;;;20.30;95.40;;;;;;6270533;22;20008;-68
2023/09/07 01:14:04;;;;;;;6.28;4.32;;;20.30;95.50;;;;;;6270008;22;20115;-68
2023/09/07 01:16:50;;;;;;;9.07;5.07;;;20.30;95.50;;;;;;6271284;22;20007;-68
2023/09/07 01:19:37;;;;;;;8.15;4.88;;;20.20;95.40;;;;;;6272282;22;20015;-69
2023/09/07 01:22:23;;;;;;;7.05;4.88;;;20.20;95.60;;;;;;6271122;22;20443;-68
2023/09/07 01:25:09;;;;;;;6.50;4.57;;;20.20;95.60;;;;;;6272208;22;20023;-68
2023/09/07 01:27:55;;;;;;;7.75;4.28;;;20.20;95.70;;;;;;6269860;22;20065;-68
2023/09/07 01:30:41;;;;;;;7.50;5.18;;;20.20;95.80;;;;;;6267910;22;20018;-68
2023/09/07 01:33:27;;;;;;;6.63;4.32;;;20.10;95.70;;;;;;6271238;22;20069;-68
2023/09/07 01:36:13;;;;;;;8.10;4.75;;;20.10;95.90;;;;;;6270950;22;20018;-68
2023/09/07 01:39:00;;;;;;;6.30;4.70;;;20.10;95.90;;;;;;6273069;22;20366;-68
2023/09/07 01:41:46;;;;;;;9.90;4.97;;;20.00;96.10;;;;;;6269811;22;20012;-67
2023/09/07 01:44:32;;;;;;;7.35;4.70;;;20.00;96.20;;;;;;6270704;22;20019;-67
2023/09/07 01:47:19;;;;;;;7.18;4.72;;;20.00;96.20;;;;;;6271580;22;20059;-67
2023/09/07 03:49:27;;;;;;;8.20;4.70;;;19.30;97.60;;;;;;6231136;22;1291692;-67
2023/09/07 03:52:13;;;;;;;6.70;4.38;;;19.20;97.60;;;;;;6240007;23;20457;-67
2023/09/07 03:55:00;;;;;;;8.80;5.53;;;19.20;97.70;;;;;;6240544;23;20086;-68
2023/09/07 03:57:46;;;;;;;8.93;5.07;;;19.20;97.70;;;;;;6239975;23;20012;-68
2023/09/07 04:00:32;;;;;;;7.80;5.28;;;19.20;97.70;;;;;;6241383;23;20434;-68
2023/09/07 04:03:17;;;;;;;8.93;4.97;;;19.20;97.70;;;;;;6240665;23;20008;-68
2023/09/07 04:06:04;;;;;;;9.00;5.20;;;19.20;97.70;;;;;;6240936;23;20430;-68
2023/09/07 04:08:50;;;;;;;7.05;4.85;;;19.10;97.70;;;;;;6239872;23;20020;-68
2023/09/07 04:11:36;;;;;;;7.32;4.90;;;19.10;97.80;;;;;;6239898;23;20331;-68
2023/09/07 04:14:22;;;;;;;8.63;5.65;;;19.10;97.80;;;;;;6241224;23;20495;-68
2023/09/07 04:17:08;;;;;;;8.05;5.40;;;19.10;97.80;;;;;;6241226;23;20438;-68
2023/09/07 04:19:54;;;;;;;7.47;4.53;;;19.00;97.90;;;;;;6240969;23;20012;-68
2023/09/07 04:22:40;;;;;;;8.52;5.72;;;19.00;98.00;;;;;;6239440;23;20004;-68
2023/09/07 04:25:26;;;;;;;8.40;5.32;;;19.00;98.10;;;;;;6238967;23;20087;-68
2023/09/07 04:28:12;;;;;;;11.77;5.43;;;19.00;98.10;;;;;;6240518;23;20008;-68
2023/09/07 04:30:58;;;;;;;6.97;4.90;;;19.00;98.10;;;;;;6239728;23;20008;-70
2023/09/07 04:33:44;;;;;;;7.93;5.13;;;19.00;98.10;;;;;;6240310;23;20004;-70
2023/09/07 04:36:30;;;;;;;7.60;5.25;;;18.90;98.10;;;;;;6240147;23;20027;-71
2023/09/07 04:39:16;;;;;;;6.97;5.50;;;18.90;98.10;;;;;;6242328;23;20070;-70
2023/09/07 04:42:02;;;;;;;8.40;5.22;;;18.90;98.10;;;;;;6216303;23;20012;-71
2023/09/07 04:44:48;;;;;;;15.00;5.55;;;18.90;98.10;;;;;;6211686;23;20005;-70
2023/09/07 04:47:34;;;;;;;8.23;4.78;;;18.90;98.10;;;;;;6210747;23;20004;-70
2023/09/07 04:50:20;;;;;;;6.63;4.80;;;18.90;98.20;;;;;;6210958;23;20017;-70
2023/09/07 04:53:06;;;;;;;7.40;5.47;;;18.90;98.20;;;;;;6208383;23;20032;-71
2023/09/07 04:55:52;;;;;;;7.95;5.18;;;18.90;98.20;;;;;;6211330;23;20043;-70
2023/09/07 04:58:38;;;;;;;6.68;4.80;;;18.90;98.20;;;;;;6211573;23;20126;-73
2023/09/07 05:01:24;;;;;;;6.63;5.18;;;18.90;98.30;;;;;;6211085;23;20001;-70
2023/09/07 05:04:09;;;;;;;6.55;4.93;;;18.80;98.30;;;;;;6211501;23;20062;-70
2023/09/07 05:06:56;;;;;;;6.75;4.95;;;18.90;98.30;;;;;;6210196;23;20054;-70
2023/09/07 05:09:42;;;;;;;11.82;6.07;;;18.90;98.40;;;;;;6210416;23;20449;-72
2023/09/07 05:12:28;;;;;;;6.97;5.10;;;18.90;98.40;;;;;;6216412;23;20042;-71
2023/09/07 05:15:14;;;;;;;8.35;5.50;;;18.90;98.40;;;;;;6219688;23;20005;-74
2023/09/07 05:18:00;;;;;;;9.88;5.30;;;18.90;98.60;;;;;;6214106;23;20003;-75
2023/09/07 05:20:48;;;;;;;8.32;5.47;;;19.00;98.40;;;;;;6216449;23;20035;-74
2023/09/07 05:23:35;;;;;;;8.07;4.85;;;19.00;98.40;;;;;;6213025;23;20004;-75
2023/09/07 05:26:23;;;;;;;7.32;5.15;;;19.00;98.40;;;;;;6209418;23;20016;-75
2023/09/07 05:29:11;;;;;;;7.88;5.60;;;19.00;98.40;;;;;;6208243;23;20016;-74
2023/09/07 05:31:57;;;;;;;5.88;4.40;;;19.00;98.40;;;;;;6207378;23;20011;-75
2023/09/07 05:34:43;;;;;;;7.25;4.45;;;19.10;98.40;;;;;;6211422;23;20009;-74
2023/09/07 05:37:29;;;;;;;8.77;5.50;;;19.10;98.40;;;;;;6211580;23;20509;-75
2023/09/07 05:40:15;;;;;;;15.25;5.65;;;19.10;98.30;;;;;;6211542;23;20040;-75
2023/09/07 05:43:01;;;;;;;12.10;5.25;;;19.20;98.30;;;;;;6210723;23;20019;-73
2023/09/07 05:45:47;;;;;;;9.45;5.10;;;19.20;98.30;;;;;;6209086;23;20008;-72
2023/09/07 05:48:33;;;;;;;7.18;5.07;;;19.20;98.20;;;;;;6208623;23;20020;-72
2023/09/07 05:51:19;;;;;;;8.80;5.05;;;19.30;98.20;;;;;;6210816;23;20077;-72
2023/09/07 05:54:05;;;;;;;6.93;4.75;;;19.30;98.10;;;;;;6210670;23;20501;-72
2023/09/07 05:56:51;;;;;;;10.57;5.32;;;19.30;98.10;;;;;;6209503;23;20015;-73
2023/09/07 05:59:37;;;;;;;8.68;4.85;;;19.40;98.00;;;;;;6210311;23;20350;-72
2023/09/07 06:02:23;;;;;;;6.32;4.60;;;19.40;98.00;;;;;;6209603;23;20080;-72
2023/09/07 06:05:09;;;;;;;11.85;5.45;;;19.50;97.90;;;;;;6209693;23;20008;-72
2023/09/07 06:07:55;;;;;;;7.10;4.72;;;19.50;97.80;;;;;;6208080;23;20015;-71
2023/09/07 06:10:41;;;;;;;8.02;4.68;;;19.60;97.80;;;;;;6210393;23;20143;-71
2023/09/07 06:13:28;;;;;;;6.63;4.63;;;19.70;97.70;;;;;;6210519;23;20019;-70
2023/09/07 06:16:14;;;;;;;10.52;5.10;;;19.70;97.60;;;;;;6208981;23;20007;-71
2023/09/07 06:19:00;;;;;;;8.20;4.72;;;19.80;97.60;;;;;;6210606;23;20451;-72
2023/09/07 06:21:46;;;;;;;8.25;4.57;;;19.80;97.60;;;;;;6208914;23;20346;-68
2023/09/07 06:24:32;;;;;;;6.43;5.28;;;19.90;97.50;;;;;;6209215;23;20012;-69
2023/09/07 06:27:18;;;;;;;9.55;5.40;;;20.00;97.50;;;;;;6209278;23;20011;-69
2023/09/07 06:30:08;;;;;;;5.72;4.38;;;20.00;97.40;;;;;;6210840;23;20131;-68
2023/09/07 06:32:54;;;;;;;11.05;5.60;;;20.10;97.30;;;;;;6209611;23;20004;-68
2023/09/07 06:35:40;;;;;;;7.50;4.78;;;20.10;97.20;;;;;;6208111;23;20410;-68
2023/09/07 06:38:26;;;;;;;8.60;4.95;;;20.20;97.10;;;;;;6210112;23;20093;-68
2023/09/07 06:41:12;;;;;;;6.80;4.38;;;20.20;97.00;;;;;;6211324;23;20012;-68
2023/09/07 06:43:58;;;;;;;7.10;5.10;;;20.30;97.00;;;;;;6212899;23;20055;-68
2023/09/07 06:46:44;;;;;;;8.52;5.03;;;20.40;97.00;;;;;;6212550;23;20005;-71
2023/09/07 06:49:30;;;;;;;6.55;4.40;;;20.40;96.90;;;;;;6210320;23;20074;-68
2023/09/07 06:52:16;;;;;;;8.98;4.85;;;20.40;96.90;;;;;;6210761;23;20015;-70
2023/09/07 06:55:02;;;;;;;6.95;4.90;;;20.50;96.90;;;;;;6212272;23;20023;-68
2023/09/07 06:57:49;;;;;;;7.55;4.60;;;20.60;96.90;;;;;;6211406;23;20009;-70
2023/09/07 07:00:35;;;;;;;8.90;4.38;;;20.70;96.90;;;;;;6210348;23;20058;-69
2023/09/07 07:03:21;;;;;;;8.02;4.60;;;20.70;96.70;;;;;;6211432;23;20060;-69
2023/09/07 07:06:07;;;;;;;9.98;5.38;;;20.80;96.60;;;;;;6212073;23;20401;-69
2023/09/07 07:08:53;;;;;;;8.88;4.20;;;20.80;96.60;;;;;;6209513;23;20017;-69
2023/09/07 07:11:39;;;;;;;8.10;4.57;;;20.90;96.60;;;;;;6211577;23;20047;-69
2023/09/07 07:14:25;;;;;;;10.18;4.75;;;21.00;96.40;;;;;;6211237;23;20354;-69
2023/09/07 07:17:11;;;;;;;7.32;4.85;;;21.00;96.30;;;;;;6212292;23;20011;-70
2023/09/07 07:19:57;;;;;;;9.70;4.70;;;21.10;96.20;;;;;;6211826;23;20008;-69
2023/09/07 07:22:43;;;;;;;8.77;4.22;;;21.10;96.10;;;;;;6208981;23;20039;-69
2023/09/07 07:25:31;;;;;;;7.60;4.60;;;21.20;96.10;;;;;;6209139;23;20012;-69
2023/09/07 07:28:17;;;;;;;10.98;3.92;;;21.30;96.00;;;;;;6208892;23;20020;-69
2023/09/07 07:31:09;;;;;;;12.63;5.25;;;21.30;96.00;;;;;;6211952;23;20390;-70
2023/09/07 07:33:56;;;;;;;10.43;4.72;;;21.40;96.20;;;;;;6210072;23;20395;-69
2023/09/07 07:36:42;;;;;;;6.63;4.43;;;21.50;95.90;;;;;;6210057;23;20015;-68
2023/09/07 07:39:28;;;;;;;11.50;4.78;;;21.50;95.80;;;;;;6211225;23;20055;-65
2023/09/07 07:42:14;;;;;;;6.88;4.00;;;21.60;95.80;;;;;;6211217;23;20005;-65
2023/09/07 07:45:00;;;;;;;6.53;4.25;;;21.70;95.70;;;;;;6211772;23;20036;-65
2023/09/07 07:47:46;;;;;;;6.05;4.10;;;21.70;95.70;;;;;;6211947;23;20473;-65
2023/09/07 07:50:32;;;;;;;7.78;4.45;;;21.80;95.40;;;;;;6211824;23;20020;-65
2023/09/07 07:53:18;;;;;;;7.05;3.83;;;21.80;95.30;;;;;;6211059;23;20036;-65
2023/09/07 07:56:04;;;;;;;6.32;4.28;;;21.90;95.30;;;;;;6211392;23;20083;-65
2023/09/07 07:58:50;;;;;;;8.68;4.22;;;22.00;95.20;;;;;;6213165;23;20346;-65
2023/09/07 08:01:36;;;;;;;5.95;3.88;;;22.10;94.90;;;;;;6211210;23;20087;-65
2023/09/07 08:04:22;;;;;;;6.53;4.15;;;22.10;94.70;;;;;;6207558;23;20012;-65
2023/09/07 08:07:08;;;;;;;7.53;4.57;;;22.20;94.60;;;;;;6212139;23;20008;-65
2023/09/07 08:09:54;;;;;;;6.18;3.95;;;22.30;94.40;;;;;;6211737;23;20469;-66
2023/09/07 08:12:40;;;;;;;5.03;3.55;;;22.30;94.20;;;;;;6209942;23;20015;-65
2023/09/07 08:15:26;;;;;;;6.50;3.78;;;22.40;94.20;;;;;;6209099;23;20013;-65
2023/09/07 08:18:12;;;;;;;8.27;4.50;;;22.50;94.10;;;;;;6211436;23;20035;-66
2023/09/07 08:20:58;;;;;;;4.97;3.88;;;22.50;94.00;;;;;;6211677;23;20004;-66
2023/09/07 08:23:44;;;;;;;7.50;3.45;;;22.60;93.90;;;;;;6211390;23;20004;-66
2023/09/07 08:26:30;;;;;;;5.60;3.88;;;22.70;93.70;;;;;;6211385;23;20418;-65
2023/09/07 08:29:16;;;;;;;5.32;4.03;;;22.80;93.60;;;;;;6211862;23;20442;-65
2023/09/07 08:32:04;;;;;;;5.15;3.67;;;22.90;93.50;;;;;;6211703;23;20032;-68
2023/09/07 08:34:50;;;;;;;6.57;3.58;;;22.90;93.20;;;;;;6210975;23;20009;-67
2023/09/07 08:37:36;;;;;;;6.72;3.80;;;23.00;93.00;;;;;;6209479;23;20047;-66
2023/09/07 08:40:23;;;;;;;7.95;4.15;;;23.10;92.90;;;;;;6210769;23;20004;-66
2023/09/07 08:43:12;;;;;;;5.60;3.92;;;23.20;92.60;;;;;;6211120;23;20011;-66
2023/09/07 08:46:14;;;;;;;5.72;3.88;;;23.30;92.60;;;;;;6209265;23;20027;-66
2023/09/07 08:49:01;;;;;;;7.57;3.90;;;23.30;92.50;;;;;;6208670;23;20055;-68
2023/09/07 08:51:48;;;;;;;7.80;4.07;;;23.40;92.40;;;;;;6208628;23;20015;-71
2023/09/07 08:54:35;;;;;;;8.43;3.45;;;23.50;92.20;;;;;;6209583;23;20086;-66
2023/09/07 08:57:22;;;;;;;6.05;3.63;;;23.60;92.00;;;;;;6204188;23;20007;-66
2023/09/07 09:00:13;;;;;;;5.38;3.35;;;23.60;91.90;;;;;;6209036;23;20087;-66
2023/09/07 09:02:59;;;;;;;4.90;3.17;;;23.70;91.80;;;;;;6209341;23;20080;-66
2023/09/07 09:05:50;;;;;;;4.75;3.42;;;23.80;91.50;;;;;;6211987;23;20009;-66
2023/09/07 09:08:43;;;;;;;7.13;3.60;;;23.90;91.20;;;;;;6209195;23;20040;-67
2023/09/07 09:11:29;;;;;;;5.63;3.33;;;24.00;90.60;;;;;;6209307;23;20012;-67
2023/09/07 09:14:19;;;;;;;7.45;4.13;;;24.10;90.20;;;;;;6211905;23;20329;-67
2023/09/07 09:17:05;;;;;;;8.32;3.70;;;24.20;89.90;;;;;;6209248;23;20005;-67
2023/09/07 09:19:51;;;;;;;4.55;3.20;;;24.20;88.80;;;;;;6211128;23;20055;-67
2023/09/07 09:22:37;;;;;;;7.15;3.40;;;24.30;88.40;;;;;;6210486;23;20004;-67
2023/09/07 09:25:23;;;;;;;4.90;3.50;;;24.40;88.10;;;;;;6208193;23;20020;-67
2023/09/07 09:28:10;;;;;;;6.05;3.25;;;24.50;88.40;;;;;;6210134;23;20004;-67
2023/09/07 09:30:56;;;;;;;6.88;3.50;;;24.60;87.30;;;;;;6209328;23;20017;-67
2023/09/07 09:33:47;;;;;;;5.00;3.03;;;24.70;86.70;;;;;;6211019;23;20091;-69
2023/09/07 09:36:34;;;;;;;4.78;3.38;;;24.80;85.90;;;;;;6207371;23;20012;-68
2023/09/07 09:39:24;;;;;;;5.95;4.25;;;24.90;85.40;;;;;;6208380;23;20004;-69
2023/09/07 09:42:12;;;;;;;8.23;3.92;;;24.90;85.00;;;;;;6207797;23;20012;-69
2023/09/07 09:44:59;;;;;;;7.97;4.28;;;25.10;85.00;;;;;;6209544;23;20035;-67
2023/09/07 09:47:46;;;;;;;4.28;3.13;;;25.10;84.70;;;;;;6209009;23;20008;-67
2023/09/07 09:50:42;;;;;;;9.50;4.40;;;25.20;84.40;;;;;;6210299;23;20509;-67
2023/09/07 09:53:28;;;;;;;5.03;3.15;;;25.30;84.20;;;;;;6209846;23;20071;-67
2023/09/07 09:56:15;;;;;;;4.63;3.45;;;25.30;83.20;;;;;;6209846;23;20009;-67
2023/09/07 09:59:00;;;;;;;6.30;3.20;;;25.40;82.50;;;;;;6210816;23;20290;-70
2023/09/07 10:01:50;;;;;;;4.72;2.90;;;25.50;82.30;;;;;;6210986;23;20009;-74
2023/09/07 10:04:36;;;;;;;6.43;3.70;;;25.60;82.10;;;;;;6209392;23;20347;-72
2023/09/07 10:07:40;;;;;;;14.65;3.63;;;25.70;82.40;;;;;;6208753;23;20027;-73
2023/09/07 10:10:26;;;;;;;4.13;2.85;;;25.80;82.40;;;;;;6209934;23;20071;-72
2023/09/07 10:13:15;;;;;;;6.15;3.30;;;25.80;81.40;;;;;;6212602;23;20066;-71
2023/09/07 10:16:08;;;;;;;6.28;2.72;;;25.90;80.80;;;;;;6212274;23;20005;-72
2023/09/07 10:18:54;;;;;;;5.88;3.35;;;26.00;81.40;;;;;;6210768;23;20009;-72
2023/09/07 10:21:40;;;;;;;5.55;3.35;;;26.10;80.60;;;;;;6210893;23;20435;-73
2023/09/07 10:24:28;;;;;;;7.55;3.08;;;26.10;80.20;;;;;;6212541;23;20062;-72
2023/09/07 10:27:14;;;;;;;6.63;3.20;;;26.20;79.90;;;;;;6208859;23;20009;-73
2023/09/07 10:30:00;;;;;;;4.55;2.80;;;26.30;78.90;;;;;;6212875;23;20781;-73
2023/09/07 10:32:46;;;;;;;6.95;3.53;;;26.30;78.30;;;;;;6213553;23;20346;-72
2023/09/07 10:35:37;;;;;;;5.18;3.72;;;26.40;77.70;;;;;;6212231;23;20060;-73
2023/09/07 10:38:24;;;;;;;6.80;3.40;;;26.40;77.30;;;;;;6211395;23;20009;-73
2023/09/07 10:41:10;;;;;;;4.07;2.78;;;26.50;77.60;;;;;;6211306;23;20008;-73
2023/09/07 10:43:57;;;;;;;3.95;2.75;;;26.50;77.10;;;;;;6212386;23;20009;-73
2023/09/07 10:46:43;;;;;;;4.55;3.05;;;26.60;77.10;;;;;;6210258;23;20032;-73
2023/09/07 10:49:29;;;;;;;5.18;2.92;;;26.60;75.80;;;;;;6212319;23;20024;-72
2023/09/07 10:52:15;;;;;;;4.80;3.00;;;26.70;75.80;;;;;;6212249;23;20009;-71
2023/09/07 10:55:00;;;;;;;8.55;3.80;;;26.80;76.00;;;;;;6211710;23;20300;-71
2023/09/07 10:57:48;;;;;;;5.28;3.17;;;26.80;75.70;;;;;;6211759;23;20048;-71
2023/09/07 11:00:34;;;;;;;4.50;2.63;;;26.90;74.90;;;;;;6212777;23;20051;-72
2023/09/07 11:03:20;;;;;;;3.38;2.50;;;26.90;74.80;;;;;;6210797;23;20004;-72
2023/09/07 11:06:12;;;;;;;6.60;3.15;;;27.00;74.20;;;;;;6211309;23;20018;-72
2023/09/07 11:09:04;;;;;;;4.38;2.72;;;27.00;74.00;;;;;;6210423;23;20023;-72
2023/09/07 11:11:50;;;;;;;4.30;2.72;;;27.10;73.20;;;;;;6210886;23;20008;-72
2023/09/07 11:14:38;;;;;;;5.10;2.65;;;27.20;73.10;;;;;;6212337;23;20020;-72
2023/09/07 11:17:28;;;;;;;5.05;3.17;;;27.20;73.10;;;;;;6211856;23;20040;-72
2023/09/07 11:20:14;;;;;;;3.75;2.20;;;27.30;71.70;;;;;;6210655;23;20013;-72
2023/09/07 11:23:00;;;;;;;3.58;2.38;;;27.30;71.50;;;;;;6212077;23;20011;-72
2023/09/07 11:25:48;;;;;;;3.80;2.60;;;27.30;71.30;;;;;;6210452;23;20354;-71
2023/09/07 11:28:34;;;;;;;8.10;3.22;;;27.40;70.60;;;;;;6210673;23;20052;-66
2023/09/07 11:31:23;;;;;;;5.80;2.65;;;27.40;71.10;;;;;;6212352;23;20389;-67
2023/09/07 11:34:13;;;;;;;3.28;2.35;;;27.40;70.00;;;;;;6211481;23;20015;-66
2023/09/07 11:36:59;;;;;;;4.00;2.40;;;27.50;69.10;;;;;;6210327;23;20333;-66
2023/09/07 11:39:45;;;;;;;11.27;2.72;;;27.50;68.90;;;;;;6211823;23;20012;-66
2023/09/07 11:42:30;;;;;;;5.18;2.83;;;27.50;68.80;;;;;;6212497;23;20001;-66
2023/09/07 11:45:18;;;;;;;4.78;3.17;;;27.60;69.10;;;;;;6211987;23;20012;-66
2023/09/07 11:48:04;;;;;;;7.75;3.35;;;27.60;68.70;;;;;;6209487;23;20198;-66
2023/09/07 11:50:50;;;;;;;3.58;2.40;;;27.60;68.40;;;;;;6210031;23;20020;-67
2023/09/07 11:53:36;;;;;;;4.20;2.78;;;27.70;68.00;;;;;;6209793;23;20040;-67
2023/09/07 11:56:22;;;;;;;7.10;3.05;;;27.70;67.80;;;;;;6211943;23;20019;-66
2023/09/07 11:59:09;;;;;;;3.95;2.45;;;27.80;67.80;;;;;;6211950;23;20058;-66
2023/09/07 12:01:55;;;;;;;4.95;2.95;;;27.80;67.60;;;;;;6209560;23;20008;-67
2023/09/07 12:04:41;;;;;;;3.97;2.22;;;27.80;66.60;;;;;;6212916;23;20004;-66
2023/09/07 12:07:27;;;;;;;6.18;3.42;;;27.90;66.60;;;;;;6211696;23;20015;-66
2023/09/07 12:10:13;;;;;;;24.50;13.55;;;27.90;66.70;;;;;;6211798;23;20233;-66
2023/09/07 12:12:59;;;;;;;11.75;6.55;;;27.90;67.00;;;;;;6209578;23;20008;-65
2023/09/07 12:15:45;;;;;;;7.03;4.28;;;28.00;67.00;;;;;;6211876;23;20012;-65
2023/09/07 12:18:31;;;;;;;7.70;3.30;;;28.10;66.90;;;;;;6211417;23;20312;-65
2023/09/07 12:21:17;;;;;;;6.75;2.88;;;28.10;66.80;;;;;;6211655;23;20004;-65
2023/09/07 12:24:03;;;;;;;4.97;3.08;;;28.20;66.70;;;;;;6212093;23;20001;-65
2023/09/07 12:26:49;;;;;;;6.05;3.45;;;28.20;67.20;;;;;;6210998;23;20016;-65
2023/09/07 12:29:35;;;;;;;3.88;2.90;;;28.20;67.70;;;;;;6210162;23;20515;-65
2023/09/07 12:32:21;;;;;;;5.47;3.40;;;28.30;67.00;;;;;;6211265;23;20346;-65
2023/09/07 12:35:08;;;;;;;5.13;3.17;;;28.30;66.20;;;;;;6211544;23;20066;-65
2023/09/07 12:37:54;;;;;;;5.50;2.60;;;28.30;66.00;;;;;;6211456;23;20106;-64
2023/09/07 12:40:40;;;;;;;3.70;2.40;;;28.40;64.70;;;;;;6211346;23;20050;-64
2023/09/07 12:43:26;;;;;;;4.75;2.70;;;28.40;64.20;;;;;;6211244;23;20012;-65
2023/09/07 12:46:12;;;;;;;4.90;2.90;;;28.40;63.60;;;;;;6211688;23;20009;-65
2023/09/07 12:48:58;;;;;;;4.38;2.53;;;28.40;64.00;;;;;;6209379;23;20027;-65
2023/09/07 12:51:47;;;;;;;4.97;2.80;;;28.50;64.60;;;;;;6212328;23;20371;-64
2023/09/07 12:54:33;;;;;;;6.00;3.15;;;28.50;64.10;;;;;;6211096;23;20009;-69
2023/09/07 12:57:19;;;;;;;7.72;3.10;;;28.60;63.70;;;;;;6211570;23;20004;-69
2023/09/07 13:00:06;;;;;;;3.67;2.35;;;28.60;63.80;;;;;;6211560;23;20012;-70
2023/09/07 13:02:52;;;;;;;5.38;3.15;;;28.60;64.00;;;;;;6211585;23;20008;-69
2023/09/07 13:05:38;;;;;;;3.65;2.50;;;28.70;63.70;;;;;;6209974;23;20009;-65
2023/09/07 13:08:24;;;;;;;8.95;2.83;;;28.70;63.80;;;;;;6210967;23;20108;-65
2023/09/07 13:11:11;;;;;;;5.18;3.00;;;28.80;64.30;;;;;;6211315;23;20016;-65
2023/09/07 13:13:57;;;;;;;7.97;3.08;;;28.90;64.20;;;;;;6208766;23;20007;-65
2023/09/07 13:16:44;;;;;;;3.65;2.65;;;29.00;64.50;;;;;;6211115;23;20018;-65
2023/09/07 13:19:30;;;;;;;5.07;2.72;;;29.00;64.00;;;;;;6209767;23;20091;-65
2023/09/07 13:22:17;;;;;;;9.52;3.15;;;29.00;63.20;;;;;;6211409;23;20016;-65
2023/09/07 13:25:04;;;;;;;5.40;2.90;;;29.10;63.00;;;;;;6209049;23;20439;-65
2023/09/07 13:27:50;;;;;;;4.20;2.88;;;29.20;62.90;;;;;;6209539;23;20090;-64
2023/09/07 13:30:36;;;;;;;5.07;3.03;;;29.20;62.80;;;;;;6211074;23;20013;-65
2023/09/07 13:33:22;;;;;;;5.55;2.58;;;29.30;63.10;;;;;;6211024;23;20338;-65
2023/09/07 13:36:09;;;;;;;4.53;2.78;;;29.30;62.60;;;;;;6211279;23;20009;-64
2023/09/07 13:38:56;;;;;;;4.45;2.75;;;29.40;62.10;;;;;;6209068;23;20017;-66
2023/09/07 13:41:42;;;;;;;5.25;3.00;;;29.40;62.30;;;;;;6208713;23;20009;-65
2023/09/07 13:44:28;;;;;;;5.35;2.85;;;29.40;61.70;;;;;;6211308;23;20004;-65
2023/09/07 13:47:14;;;;;;;4.80;2.92;;;29.50;61.60;;;;;;6211088;23;20004;-65
2023/09/07 13:50:00;;;;;;;5.53;2.95;;;29.50;61.60;;;;;;6211680;23;20119;-65
2023/09/07 13:52:46;;;;;;;6.15;2.95;;;29.60;61.50;;;;;;6210740;23;20451;-66
2023/09/07 13:55:32;;;;;;;3.50;2.40;;;29.60;61.70;;;;;;6211013;23;20009;-65
2023/09/07 13:58:18;;;;;;;3.67;2.42;;;29.70;62.30;;;;;;6211280;23;20330;-65
2023/09/07 14:01:04;;;;;;;3.50;2.47;;;29.70;61.60;;;;;;6209769;23;20004;-65
2023/09/07 14:03:50;;;;;;;3.75;2.70;;;29.70;61.80;;;;;;6210745;23;20012;-65
2023/09/07 14:06:36;;;;;;;4.25;2.70;;;29.80;61.80;;;;;;6209160;23;20011;-65
2023/09/07 14:09:25;;;;;;;4.57;2.90;;;29.80;61.10;;;;;;6208988;23;20502;-65
2023/09/07 14:12:11;;;;;;;4.72;2.95;;;29.80;61.10;;;;;;6209628;23;20008;-65
2023/09/07 14:14:57;;;;;;;4.78;2.90;;;29.80;61.10;;;;;;6211030;23;20039;-66
2023/09/07 14:17:43;;;;;;;4.43;2.58;;;29.80;60.80;;;;;;6211233;23;20075;-70
2023/09/07 14:20:29;;;;;;;4.35;2.78;;;29.80;60.90;;;;;;6210958;23;20020;-70
2023/09/07 14:23:15;;;;;;;5.85;2.70;;;29.80;61.20;;;;;;6210578;23;20008;-70
2023/09/07 14:26:01;;;;;;;6.80;3.13;;;29.80;60.40;;;;;;6210839;23;20031;-70
2023/09/07 14:28:47;;;;;;;3.88;2.60;;;29.80;60.90;;;;;;6210756;23;20016;-70
2023/09/07 14:31:33;;;;;;;3.47;2.63;;;29.90;60.50;;;;;;6209170;23;20539;-70
2023/09/07 14:34:19;;;;;;;3.95;2.70;;;29.90;60.70;;;;;;6211284;23;20008;-69
2023/09/07 14:37:04;;;;;;;5.00;2.88;;;30.00;60.90;;;;;;6210879;23;20000;-70
2023/09/07 14:39:50;;;;;;;5.43;3.00;;;30.00;60.50;;;;;;6210347;23;20394;-70
2023/09/07 14:42:36;;;;;;;4.72;3.13;;;30.10;60.60;;;;;;6210585;23;20005;-70
2023/09/07 14:45:23;;;;;;;4.22;2.83;;;30.10;60.10;;;;;;6210859;23;20441;-70
2023/09/07 14:48:09;;;;;;;4.90;3.03;;;30.10;60.20;;;;;;6209419;23;20088;-70
2023/09/07 14:50:55;;;;;;;6.55;3.58;;;30.10;60.30;;;;;;6210321;23;20024;-70
2023/09/07 14:53:41;;;;;;;6.50;3.85;;;30.10;60.30;;;;;;6211199;23;20019;-70
2023/09/07 14:56:29;;;;;;;6.88;3.17;;;30.10;60.30;;;;;;6211335;23;20075;-70
2023/09/07 14:59:15;;;;;;;4.35;2.92;;;30.10;60.60;;;;;;6211734;23;20009;-70
2023/09/07 15:02:00;;;;;;;4.30;3.03;;;30.10;60.40;;;;;;6212446;23;20087;-69
2023/09/07 15:04:47;;;;;;;7.50;2.92;;;30.00;60.30;;;;;;6211374;23;20013;-70
2023/09/07 15:07:32;;;;;;;5.63;3.35;;;30.00;60.50;;;;;;6210362;23;20376;-70
2023/09/07 15:10:18;;;;;;;5.53;3.33;;;30.10;60.60;;;;;;6212367;23;20012;-70
2023/09/07 15:13:05;;;;;;;5.80;3.30;;;30.10;60.90;;;;;;6212124;23;20008;-70
2023/09/07 15:15:51;;;;;;;5.65;2.83;;;30.20;60.40;;;;;;6211227;23;20084;-70
2023/09/07 15:18:37;;;;;;;4.60;2.80;;;30.20;60.10;;;;;;6212007;23;20039;-70
2023/09/07 15:21:23;;;;;;;6.15;3.60;;;30.10;60.00;;;;;;6212341;23;20005;-70
2023/09/07 15:24:09;;;;;;;5.20;3.67;;;30.10;59.90;;;;;;6209553;23;20005;-70
2023/09/07 15:26:55;;;;;;;4.72;3.00;;;30.10;59.80;;;;;;6211977;23;20494;-70
2023/09/07 15:29:41;;;;;;;5.68;3.15;;;30.10;60.00;;;;;;6212894;23;20017;-69
2023/09/07 15:32:27;;;;;;;4.80;3.38;;;30.10;60.20;;;;;;6213829;23;20028;-75
2023/09/07 15:35:13;;;;;;;4.75;3.50;;;30.10;60.10;;;;;;6213062;23;20012;-71
2023/09/07 15:37:59;;;;;;;4.78;3.00;;;30.10;60.20;;;;;;6210904;23;20191;-71
2023/09/07 15:40:46;;;;;;;7.95;3.10;;;30.10;60.10;;;;;;6211696;23;20032;-71
2023/09/07 15:43:32;;;;;;;4.03;2.90;;;30.10;60.40;;;;;;6210839;23;20000;-74
2023/09/07 15:46:19;;;;;;;5.38;3.47;;;30.10;60.60;;;;;;6210341;23;20027;-72
2023/09/07 15:49:05;;;;;;;5.32;3.72;;;30.10;60.50;;;;;;6209940;23;20072;-73
2023/09/07 15:51:51;;;;;;;4.57;3.47;;;30.10;60.60;;;;;;6211883;23;20019;-73
2023/09/07 15:54:37;;;;;;;6.53;3.17;;;30.00;60.20;;;;;;6210949;23;20081;-72
2023/09/07 15:57:25;;;;;;;9.00;3.67;;;30.00;60.30;;;;;;6210046;23;20035;-72
2023/09/07 16:00:11;;;;;;;4.28;3.13;;;30.00;60.10;;;;;;6209713;23;20401;-73
2023/09/07 16:02:57;;;;;;;3.70;2.47;;;29.90;60.00;;;;;;6209933;23;20013;-72
2023/09/07 16:05:43;;;;;;;7.47;3.13;;;29.80;59.90;;;;;;6211725;23;20032;-74
2023/09/07 16:08:29;;;;;;;6.78;3.33;;;29.80;59.80;;;;;;6211347;23;20012;-72
2023/09/07 16:11:15;;;;;;;5.55;3.38;;;29.70;59.80;;;;;;6211667;23;20016;-72
2023/09/07 16:14:01;;;;;;;5.20;2.95;;;29.70;59.90;;;;;;6209964;23;20001;-72
2023/09/07 16:16:47;;;;;;;4.20;2.97;;;29.70;60.00;;;;;;6210918;23;20019;-72
2023/09/07 16:19:33;;;;;;;4.25;3.13;;;29.60;59.70;;;;;;6209013;23;20009;-72
2023/09/07 16:22:19;;;;;;;4.25;3.10;;;29.60;59.40;;;;;;6210890;23;20009;-72
2023/09/07 16:25:05;;;;;;;6.43;3.03;;;29.50;59.60;;;;;;6211496;23;20009;-73